Time;durP1;ratioP1;P1;durP2;ratioP2;P2;SDS_P1;SDS_P2;PMS_P1;PMS_P2;Temp;Humidity;BMP_temperature;BMP_pressure;BME280_temperature;BME280_humidity;BME280_pressure;Samples;Min_cycle;Max_cycle;Signal;HPM_P1;HPM_P2
2022/10/21 00:01:44;;;;;;;44.67;30.03;;;;;;;;;;5063522;28;20496;-81
2022/10/21 00:04:10;;;;;;;44.03;30.15;;;;;;;;;;5067193;28;20416;-82
2022/10/21 00:06:37;;;;;;;39.40;27.92;;;;;;;;;;5063968;28;20420;-79
2022/10/21 00:09:04;;;;;;;40.08;28.65;;;;;;;;;;5062350;28;20418;-80
2022/10/21 00:11:32;;;;;;;41.83;29.17;;;;;;;;;;5064350;28;20429;-80
2022/10/21 00:14:00;;;;;;;42.67;29.63;;;;;;;;;;5065438;28;20537;-80
2022/10/21 00:16:26;;;;;;;43.20;28.77;;;;;;;;;;5066051;28;20433;-80
2022/10/21 00:18:53;;;;;;;41.92;29.20;;;;;;;;;;5066094;28;20421;-80
2022/10/21 00:21:20;;;;;;;40.60;27.95;;;;;;;;;;5065409;28;20439;-80
2022/10/21 00:23:48;;;;;;;42.03;28.50;;;;;;;;;;5067285;28;20411;-80
2022/10/21 00:26:15;;;;;;;42.40;29.40;;;;;;;;;;5062782;28;20453;-80
2022/10/21 00:28:43;;;;;;;38.60;27.13;;;;;;;;;;5069734;28;20779;-80
2022/10/21 00:31:11;;;;;;;38.70;28.30;;;;;;;;;;5065252;28;20847;-80
2022/10/21 00:33:37;;;;;;;40.83;27.73;;;;;;;;;;5066601;28;20434;-80
2022/10/21 00:36:06;;;;;;;42.38;28.30;;;;;;;;;;5064600;28;20444;-80
2022/10/21 00:38:33;;;;;;;38.60;26.77;;;;;;;;;;5061008;28;20799;-80
2022/10/21 00:40:59;;;;;;;38.67;28.40;;;;;;;;;;5065926;28;20422;-80
2022/10/21 00:43:28;;;;;;;41.00;28.85;;;;;;;;;;5063537;28;20425;-80
2022/10/21 00:45:57;;;;;;;43.13;30.67;;;;;;;;;;5066357;28;20422;-80
2022/10/21 00:48:26;;;;;;;42.97;29.80;;;;;;;;;;5063067;28;20415;-80
2022/10/21 00:50:55;;;;;;;41.33;29.25;;;;;;;;;;5064068;28;20433;-80
2022/10/21 00:53:22;;;;;;;38.17;28.08;;;;;;;;;;5063447;28;20505;-80
2022/10/21 00:55:50;;;;;;;36.40;26.20;;;;;;;;;;5068359;28;20787;-80
2022/10/21 00:58:17;;;;;;;46.15;27.08;;;;;;;;;;5062894;28;20413;-80
2022/10/21 01:00:44;;;;;;;39.55;28.00;;;;;;;;;;5050832;28;20421;-80
2022/10/21 01:03:12;;;;;;;37.15;25.98;;;;;;;;;;5067598;28;20421;-80
2022/10/21 01:05:39;;;;;;;40.28;28.40;;;;;;;;;;5067609;28;20416;-80
2022/10/21 01:08:06;;;;;;;37.83;26.90;;;;;;;;;;5060438;28;20425;-80
2022/10/21 01:10:32;;;;;;;41.10;30.15;;;;;;;;;;5062506;28;20944;-80
2022/10/21 01:13:06;;;;;;;40.00;27.90;;;;;;;;;;5063157;28;20414;-80
2022/10/21 01:15:36;;;;;;;34.50;26.45;;;;;;;;;;5065934;28;20747;-80
2022/10/21 01:18:10;;;;;;;37.92;26.60;;;;;;;;;;5060411;28;20434;-80
2022/10/21 01:21:01;;;;;;;38.33;26.70;;;;;;;;;;5065377;28;20427;-80
2022/10/21 01:23:52;;;;;;;36.20;26.67;;;;;;;;;;5044517;28;20484;-80
2022/10/21 01:26:42;;;;;;;37.15;26.02;;;;;;;;;;5064607;28;20424;-80
2022/10/21 01:29:21;;;;;;;39.40;27.20;;;;;;;;;;5061536;28;20478;-80
2022/10/21 01:31:51;;;;;;;37.95;26.63;;;;;;;;;;5065016;28;20425;-80
2022/10/21 01:34:23;;;;;;;37.15;26.70;;;;;;;;;;5065578;28;20914;-80
2022/10/21 01:36:54;;;;;;;38.88;28.00;;;;;;;;;;5063787;28;20440;-80
2022/10/21 01:39:23;;;;;;;36.63;25.95;;;;;;;;;;5065876;28;20425;-80
2022/10/21 01:41:53;;;;;;;43.17;28.02;;;;;;;;;;5059337;28;20796;-80
2022/10/21 01:44:23;;;;;;;37.70;26.75;;;;;;;;;;5063556;28;20425;-80
2022/10/21 01:46:55;;;;;;;37.07;27.03;;;;;;;;;;5045735;28;20480;-80
2022/10/21 01:49:24;;;;;;;41.78;28.63;;;;;;;;;;5061403;28;20436;-80
2022/10/21 01:51:51;;;;;;;40.22;27.70;;;;;;;;;;5066218;28;20881;-80
2022/10/21 01:54:21;;;;;;;42.83;26.90;;;;;;;;;;5069639;28;20426;-80
2022/10/21 01:56:49;;;;;;;44.67;29.13;;;;;;;;;;5067513;28;20431;-82
2022/10/21 01:59:16;;;;;;;42.00;27.07;;;;;;;;;;5067041;28;20425;-81
2022/10/21 02:01:43;;;;;;;46.90;30.60;;;;;;;;;;5065862;28;20433;-82
2022/10/21 02:04:12;;;;;;;42.08;30.10;;;;;;;;;;5069696;28;20417;-80
2022/10/21 02:06:41;;;;;;;46.28;28.52;;;;;;;;;;5069942;28;20436;-80
2022/10/21 02:09:08;;;;;;;42.20;29.63;;;;;;;;;;5070082;28;20429;-80
2022/10/21 02:11:36;;;;;;;39.78;29.33;;;;;;;;;;5067204;28;20444;-80
2022/10/21 02:14:03;;;;;;;40.10;28.17;;;;;;;;;;5063014;28;20444;-82
2022/10/21 02:16:31;;;;;;;45.88;29.48;;;;;;;;;;5063113;28;20435;-80
2022/10/21 02:19:00;;;;;;;45.90;29.77;;;;;;;;;;5063287;28;20426;-80
2022/10/21 02:21:31;;;;;;;47.17;30.08;;;;;;;;;;5069811;28;20847;-80
2022/10/21 02:23:59;;;;;;;45.78;28.67;;;;;;;;;;5063624;28;20463;-79
2022/10/21 02:26:26;;;;;;;47.60;29.90;;;;;;;;;;5064838;28;20600;-82
2022/10/21 02:28:54;;;;;;;40.92;29.08;;;;;;;;;;5063492;28;20423;-81
2022/10/21 02:31:33;;;;;;;42.97;28.90;;;;;;;;;;5065152;28;20436;-82
2022/10/21 02:34:03;;;;;;;43.87;29.10;;;;;;;;;;5069798;28;20432;-83
2022/10/21 02:36:37;;;;;;;46.28;30.88;;;;;;;;;;5063838;28;20988;-82
2022/10/21 02:39:07;;;;;;;46.60;29.95;;;;;;;;;;5064311;28;20428;-82
2022/10/21 02:41:34;;;;;;;47.60;30.77;;;;;;;;;;5065223;28;20437;-81
2022/10/21 02:44:01;;;;;;;52.60;30.77;;;;;;;;;;5065545;28;20427;-79
2022/10/21 02:46:34;;;;;;;47.90;32.30;;;;;;;;;;5061534;28;20423;-82
2022/10/21 02:49:01;;;;;;;50.28;32.47;;;;;;;;;;5057804;28;20421;-80
2022/10/21 02:51:29;;;;;;;45.35;29.55;;;;;;;;;;5061725;28;20430;-79
2022/10/21 02:53:58;;;;;;;47.65;31.67;;;;;;;;;;5062893;28;20423;-80
2022/10/21 02:56:26;;;;;;;45.35;31.55;;;;;;;;;;5064525;28;20432;-80
2022/10/21 02:58:52;;;;;;;48.08;28.75;;;;;;;;;;5065587;28;20409;-81
2022/10/21 03:01:19;;;;;;;43.03;30.55;;;;;;;;;;5066957;28;20913;-80
2022/10/21 03:03:45;;;;;;;46.72;30.23;;;;;;;;;;5063624;28;20424;-80
2022/10/21 03:06:11;;;;;;;47.78;29.83;;;;;;;;;;5064891;28;20439;-82
2022/10/21 03:08:38;;;;;;;43.53;30.20;;;;;;;;;;5067759;28;20413;-82
2022/10/21 03:11:07;;;;;;;45.78;29.55;;;;;;;;;;5065929;28;20790;-82
2022/10/21 03:13:34;;;;;;;51.75;31.20;;;;;;;;;;5065618;28;20498;-81
2022/10/21 03:16:00;;;;;;;44.30;30.37;;;;;;;;;;5065205;28;20436;-81
2022/10/21 03:18:26;;;;;;;45.42;29.40;;;;;;;;;;5066551;28;20443;-81
2022/10/21 03:20:53;;;;;;;44.65;28.95;;;;;;;;;;5066594;28;20425;-80
2022/10/21 03:23:19;;;;;;;43.88;28.95;;;;;;;;;;5063598;28;20764;-83
2022/10/21 03:25:47;;;;;;;45.95;28.77;;;;;;;;;;5066582;28;20449;-80
2022/10/21 03:28:14;;;;;;;42.42;26.70;;;;;;;;;;5066718;28;20467;-80
2022/10/21 03:30:41;;;;;;;43.60;27.20;;;;;;;;;;5067803;28;20417;-80
2022/10/21 03:33:07;;;;;;;45.25;29.25;;;;;;;;;;5066961;28;20407;-80
2022/10/21 03:35:34;;;;;;;41.90;27.95;;;;;;;;;;5064898;28;20428;-80
2022/10/21 03:38:00;;;;;;;45.83;28.10;;;;;;;;;;5063369;28;20452;-80
2022/10/21 03:40:28;;;;;;;37.83;26.58;;;;;;;;;;5047935;28;20429;-80
2022/10/21 03:42:55;;;;;;;45.65;29.50;;;;;;;;;;5057541;28;20429;-80
2022/10/21 03:45:23;;;;;;;40.45;28.40;;;;;;;;;;5049116;28;20417;-80
2022/10/21 03:47:49;;;;;;;48.13;30.55;;;;;;;;;;5064263;28;20426;-80
2022/10/21 03:50:16;;;;;;;41.63;27.00;;;;;;;;;;5066986;28;20415;-80
2022/10/21 03:52:42;;;;;;;46.65;29.60;;;;;;;;;;5066081;28;20696;-80
2022/10/21 03:55:09;;;;;;;46.90;28.35;;;;;;;;;;5066584;28;20802;-80
2022/10/21 03:57:35;;;;;;;42.05;27.52;;;;;;;;;;5064331;28;20416;-80
2022/10/21 04:00:02;;;;;;;49.75;30.13;;;;;;;;;;5066270;28;20425;-80
2022/10/21 04:02:30;;;;;;;47.13;31.17;;;;;;;;;;5067394;28;20424;-80
2022/10/21 04:04:56;;;;;;;44.53;29.63;;;;;;;;;;5066000;28;20431;-80
2022/10/21 04:07:22;;;;;;;49.27;31.67;;;;;;;;;;5064611;28;20409;-80
2022/10/21 04:09:49;;;;;;;51.60;31.85;;;;;;;;;;5065778;28;20424;-80
2022/10/21 04:12:15;;;;;;;41.73;27.60;;;;;;;;;;5063839;28;20908;-81
2022/10/21 04:14:41;;;;;;;44.33;28.95;;;;;;;;;;5066789;28;20428;-80
2022/10/21 04:17:10;;;;;;;41.10;28.05;;;;;;;;;;5065282;28;20409;-80
2022/10/21 04:19:42;;;;;;;53.58;30.42;;;;;;;;;;5065640;28;20413;-80
2022/10/21 04:22:09;;;;;;;43.00;29.30;;;;;;;;;;5061846;28;20930;-80
2022/10/21 04:24:35;;;;;;;52.85;32.00;;;;;;;;;;5048500;28;20405;-80
2022/10/21 04:27:03;;;;;;;54.53;32.25;;;;;;;;;;5062685;28;20421;-81
2022/10/21 04:29:29;;;;;;;51.40;31.60;;;;;;;;;;5067180;28;20424;-80
2022/10/21 04:31:56;;;;;;;53.17;30.35;;;;;;;;;;5066332;28;20424;-80
2022/10/21 04:34:22;;;;;;;46.78;29.35;;;;;;;;;;5067883;28;20428;-80
2022/10/21 04:36:50;;;;;;;47.53;28.48;;;;;;;;;;5068398;28;20948;-80
2022/10/21 04:39:16;;;;;;;50.70;31.05;;;;;;;;;;5063281;28;20507;-80
2022/10/21 04:41:44;;;;;;;46.25;29.08;;;;;;;;;;5068547;28;20439;-80
2022/10/21 04:44:11;;;;;;;54.47;32.75;;;;;;;;;;5044122;28;20450;-80
2022/10/21 04:46:38;;;;;;;55.47;32.20;;;;;;;;;;5042785;28;20436;-80
2022/10/21 04:49:04;;;;;;;51.13;31.65;;;;;;;;;;5042762;28;20429;-80
2022/10/21 04:51:30;;;;;;;49.65;31.27;;;;;;;;;;5045890;28;20415;-82
2022/10/21 04:53:58;;;;;;;47.80;29.27;;;;;;;;;;5045569;28;20419;-82
2022/10/21 04:56:25;;;;;;;50.65;30.52;;;;;;;;;;5044760;28;20444;-82
2022/10/21 04:58:51;;;;;;;50.08;30.50;;;;;;;;;;5044589;28;20423;-81
2022/10/21 05:01:19;;;;;;;62.63;35.20;;;;;;;;;;5040870;28;20438;-82
2022/10/21 05:03:46;;;;;;;56.08;32.72;;;;;;;;;;5044738;28;20414;-81
2022/10/21 05:06:12;;;;;;;55.25;33.00;;;;;;;;;;5044288;28;20417;-81
2022/10/21 05:08:38;;;;;;;53.63;32.00;;;;;;;;;;5043625;28;20507;-81
2022/10/21 05:11:06;;;;;;;54.15;31.38;;;;;;;;;;5043933;28;20421;-81
2022/10/21 05:13:33;;;;;;;56.67;32.78;;;;;;;;;;5041982;28;20426;-82
2022/10/21 05:16:01;;;;;;;54.37;30.80;;;;;;;;;;5041114;28;20472;-81
2022/10/21 05:18:29;;;;;;;50.35;31.08;;;;;;;;;;5043657;28;20950;-81
2022/10/21 05:20:56;;;;;;;52.50;31.95;;;;;;;;;;5044236;28;20436;-81
2022/10/21 05:23:22;;;;;;;49.25;30.20;;;;;;;;;;5042961;28;20417;-81
2022/10/21 05:25:50;;;;;;;53.67;31.07;;;;;;;;;;5039993;28;20431;-81
2022/10/21 05:28:18;;;;;;;56.78;32.58;;;;;;;;;;5043998;28;20421;-81
2022/10/21 05:30:45;;;;;;;56.08;34.15;;;;;;;;;;5043875;28;20429;-81
2022/10/21 05:33:13;;;;;;;59.03;35.47;;;;;;;;;;5045208;28;20413;-81
2022/10/21 05:35:40;;;;;;;60.73;33.27;;;;;;;;;;5044406;28;20433;-81
2022/10/21 05:38:06;;;;;;;59.03;34.25;;;;;;;;;;5040173;28;20429;-81
2022/10/21 05:40:33;;;;;;;56.10;33.45;;;;;;;;;;5039371;28;20921;-81
2022/10/21 05:42:59;;;;;;;55.73;32.30;;;;;;;;;;5042127;28;20430;-81
2022/10/21 05:45:27;;;;;;;54.42;34.20;;;;;;;;;;5039513;28;20439;-81
2022/10/21 05:47:54;;;;;;;61.72;34.22;;;;;;;;;;5040761;28;20424;-81
2022/10/21 05:50:20;;;;;;;61.50;33.97;;;;;;;;;;5044249;28;20413;-83
2022/10/21 05:52:47;;;;;;;57.60;32.25;;;;;;;;;;5041226;28;20427;-81
2022/10/21 05:55:15;;;;;;;51.78;33.47;;;;;;;;;;5038414;28;20946;-81
2022/10/21 05:57:41;;;;;;;58.33;33.53;;;;;;;;;;5042256;28;20520;-82
2022/10/21 06:00:08;;;;;;;62.90;34.95;;;;;;;;;;5043422;28;20426;-81
2022/10/21 06:02:36;;;;;;;57.45;32.22;;;;;;;;;;5041667;28;20419;-81
2022/10/21 06:05:03;;;;;;;61.35;35.05;;;;;;;;;;5045707;28;20426;-81
2022/10/21 06:07:30;;;;;;;58.33;34.80;;;;;;;;;;5044049;28;20407;-81
2022/10/21 06:09:56;;;;;;;60.13;35.88;;;;;;;;;;5040357;28;20434;-81
2022/10/21 06:12:23;;;;;;;61.22;34.67;;;;;;;;;;5039380;28;20424;-81
2022/10/21 06:14:49;;;;;;;58.30;33.15;;;;;;;;;;5039156;28;20431;-81
2022/10/21 06:17:15;;;;;;;59.92;33.10;;;;;;;;;;5042419;28;20780;-81
2022/10/21 06:19:43;;;;;;;59.20;33.00;;;;;;;;;;5036780;28;20437;-81
2022/10/21 06:22:09;;;;;;;52.83;32.57;;;;;;;;;;5037543;28;20403;-81
2022/10/21 06:24:36;;;;;;;54.88;33.15;;;;;;;;;;5042059;28;20455;-81
2022/10/21 06:27:03;;;;;;;51.25;31.45;;;;;;;;;;5038395;28;20431;-81
2022/10/21 06:29:29;;;;;;;60.30;31.52;;;;;;;;;;5040781;28;20437;-81
2022/10/21 06:31:57;;;;;;;55.10;33.45;;;;;;;;;;5039450;28;20457;-81
2022/10/21 06:34:24;;;;;;;55.97;32.53;;;;;;;;;;5040760;28;20431;-81
2022/10/21 06:36:51;;;;;;;54.90;32.60;;;;;;;;;;5038753;28;20437;-81
2022/10/21 06:39:18;;;;;;;53.38;33.90;;;;;;;;;;5045262;28;20433;-82
2022/10/21 06:41:44;;;;;;;51.17;31.35;;;;;;;;;;5039771;28;20435;-81
2022/10/21 06:44:11;;;;;;;54.13;32.00;;;;;;;;;;5046173;28;20432;-81
2022/10/21 06:46:37;;;;;;;52.85;32.60;;;;;;;;;;5042819;28;20426;-82
2022/10/21 06:49:04;;;;;;;55.33;33.35;;;;;;;;;;5046731;28;20423;-81
2022/10/21 06:51:32;;;;;;;52.35;32.75;;;;;;;;;;5046844;28;20425;-81
2022/10/21 06:54:00;;;;;;;58.45;32.53;;;;;;;;;;5044978;28;20789;-81
2022/10/21 06:56:26;;;;;;;59.90;33.53;;;;;;;;;;5046250;28;20429;-80
2022/10/21 06:58:56;;;;;;;52.90;32.88;;;;;;;;;;5039091;28;20425;-82
2022/10/21 07:01:24;;;;;;;64.18;34.75;;;;;;;;;;5041285;28;20439;-82
2022/10/21 07:03:50;;;;;;;57.10;34.15;;;;;;;;;;5042081;28;20430;-80
2022/10/21 07:06:17;;;;;;;57.97;33.40;;;;;;;;;;5044323;28;20827;-82
2022/10/21 07:08:44;;;;;;;57.70;33.67;;;;;;;;;;5042931;28;20429;-82
2022/10/21 07:11:12;;;;;;;61.95;35.17;;;;;;;;;;5044023;28;20437;-82
2022/10/21 07:13:39;;;;;;;60.90;33.95;;;;;;;;;;5043160;28;20427;-82
2022/10/21 07:16:06;;;;;;;54.22;34.20;;;;;;;;;;5043977;28;20418;-82
2022/10/21 07:18:33;;;;;;;53.43;33.03;;;;;;;;;;5045334;28;20421;-82
2022/10/21 07:21:03;;;;;;;54.90;32.10;;;;;;;;;;5042682;28;20431;-82
2022/10/21 07:23:30;;;;;;;59.42;32.40;;;;;;;;;;5047735;28;20418;-82
2022/10/21 07:25:56;;;;;;;62.28;35.28;;;;;;;;;;5046334;28;20419;-82
2022/10/21 07:28:24;;;;;;;54.85;32.30;;;;;;;;;;5030974;28;20933;-82
2022/10/21 07:30:50;;;;;;;64.38;34.15;;;;;;;;;;5032196;28;20423;-82
2022/10/21 07:33:16;;;;;;;60.28;34.50;;;;;;;;;;5045640;28;20417;-81
2022/10/21 07:35:43;;;;;;;57.25;34.60;;;;;;;;;;5044220;28;20432;-82
2022/10/21 07:38:11;;;;;;;58.38;35.58;;;;;;;;;;5043613;28;21062;-82
2022/10/21 07:40:38;;;;;;;52.75;32.13;;;;;;;;;;5047282;28;20418;-82
2022/10/21 07:43:07;;;;;;;58.10;32.90;;;;;;;;;;5043728;28;20420;-81
2022/10/21 07:45:38;;;;;;;60.38;34.38;;;;;;;;;;5045368;28;20425;-81
2022/10/21 07:48:04;;;;;;;55.45;32.42;;;;;;;;;;5040745;28;20420;-81
2022/10/21 07:50:32;;;;;;;52.40;32.63;;;;;;;;;;5045101;28;20407;-82
2022/10/21 07:52:59;;;;;;;52.83;32.58;;;;;;;;;;5045430;28;21057;-82
2022/10/21 07:55:27;;;;;;;53.63;32.90;;;;;;;;;;5046600;28;20420;-81
2022/10/21 07:57:53;;;;;;;51.65;31.98;;;;;;;;;;5046814;28;20421;-82
2022/10/21 08:00:20;;;;;;;52.65;29.98;;;;;;;;;;5042685;28;20438;-84
2022/10/21 08:02:47;;;;;;;51.53;31.05;;;;;;;;;;5042962;28;20425;-82
2022/10/21 08:05:14;;;;;;;52.40;30.10;;;;;;;;;;5044019;28;20423;-82
2022/10/21 08:07:40;;;;;;;48.67;30.13;;;;;;;;;;5046986;28;20415;-82
2022/10/21 08:10:07;;;;;;;49.45;31.65;;;;;;;;;;5045373;28;20425;-82
2022/10/21 08:12:34;;;;;;;42.42;29.50;;;;;;;;;;5039968;28;20416;-82
2022/10/21 08:15:00;;;;;;;48.65;30.60;;;;;;;;;;5038999;28;20434;-81
2022/10/21 08:17:26;;;;;;;46.17;30.83;;;;;;;;;;5041609;28;20426;-82
2022/10/21 08:19:55;;;;;;;47.75;29.23;;;;;;;;;;5045136;28;20435;-82
2022/10/21 08:22:21;;;;;;;44.33;29.83;;;;;;;;;;5040343;28;20411;-81
2022/10/21 08:24:48;;;;;;;43.25;30.10;;;;;;;;;;5044192;28;20416;-82
2022/10/21 08:27:16;;;;;;;38.60;27.30;;;;;;;;;;5015871;28;20438;-81
2022/10/21 08:29:42;;;;;;;44.67;28.13;;;;;;;;;;5061790;28;20423;-82
2022/10/21 08:32:08;;;;;;;41.97;27.50;;;;;;;;;;5063399;28;20420;-82
2022/10/21 08:34:35;;;;;;;40.30;26.88;;;;;;;;;;5065576;28;20787;-81
2022/10/21 08:37:02;;;;;;;33.08;25.65;;;;;;;;;;5063135;28;20423;-82
2022/10/21 08:39:29;;;;;;;35.90;24.95;;;;;;;;;;5064240;28;20439;-82
2022/10/21 08:42:00;;;;;;;32.53;23.55;;;;;;;;;;5065459;28;20799;-82
2022/10/21 08:44:30;;;;;;;29.83;22.63;;;;;;;;;;5060938;28;20442;-82
2022/10/21 08:46:59;;;;;;;31.67;23.30;;;;;;;;;;5062044;28;20422;-82
2022/10/21 08:49:30;;;;;;;31.58;22.08;;;;;;;;;;5064155;28;20411;-82
2022/10/21 08:51:58;;;;;;;29.20;21.47;;;;;;;;;;5061560;28;20514;-80
2022/10/21 08:54:31;;;;;;;32.13;20.73;;;;;;;;;;5065686;28;20511;-82
2022/10/21 08:56:59;;;;;;;29.27;21.20;;;;;;;;;;5063514;28;20440;-80
2022/10/21 08:59:26;;;;;;;32.05;20.35;;;;;;;;;;5057352;28;20788;-80
2022/10/21 09:01:57;;;;;;;27.02;18.48;;;;;;;;;;5057720;28;20837;-79
2022/10/21 09:04:27;;;;;;;27.35;20.08;;;;;;;;;;5056416;28;20823;-79
2022/10/21 09:06:55;;;;;;;29.80;20.02;;;;;;;;;;5055876;28;20436;-81
2022/10/21 09:09:25;;;;;;;24.65;19.52;;;;;;;;;;5048073;28;20423;-81
2022/10/21 09:11:57;;;;;;;30.08;20.42;;;;;;;;;;5057111;28;20422;-81
2022/10/21 09:14:40;;;;;;;27.73;18.33;;;;;;;;;;5055039;28;20425;-81
2022/10/21 09:17:13;;;;;;;28.10;19.13;;;;;;;;;;5058984;28;20415;-81
2022/10/21 09:19:43;;;;;;;25.65;19.88;;;;;;;;;;5057956;28;20421;-81
2022/10/21 09:22:20;;;;;;;27.88;20.23;;;;;;;;;;5057809;28;20481;-81
2022/10/21 09:24:49;;;;;;;24.88;19.60;;;;;;;;;;5057462;28;20426;-81
2022/10/21 09:27:17;;;;;;;29.70;20.27;;;;;;;;;;5050040;28;20461;-81
2022/10/21 09:29:44;;;;;;;30.93;21.53;;;;;;;;;;5056254;28;20887;-80
2022/10/21 09:32:14;;;;;;;26.70;19.52;;;;;;;;;;5055653;28;20435;-81
2022/10/21 09:34:44;;;;;;;25.90;19.77;;;;;;;;;;5055747;28;20772;-81
2022/10/21 09:37:14;;;;;;;27.52;19.83;;;;;;;;;;5056710;28;20412;-81
2022/10/21 09:39:42;;;;;;;22.10;18.38;;;;;;;;;;5055700;28;20439;-81
2022/10/21 09:42:11;;;;;;;24.58;19.13;;;;;;;;;;5052289;28;20434;-81
2022/10/21 09:44:39;;;;;;;24.20;19.42;;;;;;;;;;5055248;28;21055;-81
2022/10/21 09:47:15;;;;;;;26.05;19.17;;;;;;;;;;5055753;28;20401;-81
2022/10/21 09:49:46;;;;;;;24.00;18.50;;;;;;;;;;5058311;28;20448;-81
2022/10/21 09:52:12;;;;;;;25.65;19.08;;;;;;;;;;5054243;28;20438;-81
2022/10/21 09:54:39;;;;;;;26.10;17.20;;;;;;;;;;5060453;28;20411;-81
2022/10/21 09:57:12;;;;;;;21.30;17.50;;;;;;;;;;5056058;28;20406;-81
2022/10/21 09:59:52;;;;;;;21.98;17.42;;;;;;;;;;5060169;28;20529;-81
2022/10/21 10:02:23;;;;;;;20.05;16.40;;;;;;;;;;5054876;28;20429;-81
2022/10/21 10:04:51;;;;;;;19.60;16.98;;;;;;;;;;5055219;28;20481;-81
2022/10/21 10:07:26;;;;;;;21.38;16.85;;;;;;;;;;5054597;28;20423;-81
2022/10/21 10:09:53;;;;;;;22.60;17.35;;;;;;;;;;5054885;28;20937;-81
2022/10/21 10:12:21;;;;;;;20.85;16.50;;;;;;;;;;5055874;28;20417;-81
2022/10/21 10:14:48;;;;;;;20.38;16.17;;;;;;;;;;5061365;28;20417;-81
2022/10/21 10:17:34;;;;;;;20.42;15.70;;;;;;;;;;5057139;28;20403;-81
2022/10/21 10:20:18;;;;;;;21.17;15.25;;;;;;;;;;5056788;28;20433;-81
2022/10/21 10:22:46;;;;;;;16.02;14.35;;;;;;;;;;5060032;28;20421;-81
2022/10/21 10:25:23;;;;;;;18.30;14.95;;;;;;;;;;5060069;28;20434;-81
2022/10/21 10:27:50;;;;;;;21.40;14.90;;;;;;;;;;5051875;28;20413;-81
2022/10/21 10:30:18;;;;;;;19.70;15.20;;;;;;;;;;5057376;28;20813;-81
2022/10/21 10:32:46;;;;;;;18.40;13.60;;;;;;;;;;5060286;28;20417;-81
2022/10/21 10:35:21;;;;;;;18.20;14.00;;;;;;;;;;5058201;28;20429;-79
2022/10/21 10:37:48;;;;;;;19.25;14.18;;;;;;;;;;5057430;28;20923;-81
2022/10/21 10:40:20;;;;;;;19.58;14.80;;;;;;;;;;5055984;28;20507;-80
2022/10/21 10:42:46;;;;;;;14.90;13.30;;;;;;;;;;5060524;28;20421;-79
2022/10/21 10:45:14;;;;;;;20.00;13.90;;;;;;;;;;5058940;28;20463;-79
2022/10/21 10:47:42;;;;;;;17.97;13.47;;;;;;;;;;5061375;28;20964;-80
2022/10/21 10:50:24;;;;;;;15.98;12.85;;;;;;;;;;5059881;28;20438;-79
2022/10/21 10:53:09;;;;;;;18.35;13.95;;;;;;;;;;5062645;28;20496;-80
2022/10/21 10:55:41;;;;;;;15.52;12.70;;;;;;;;;;5061671;28;20454;-81
2022/10/21 10:58:08;;;;;;;16.40;12.60;;;;;;;;;;5054503;28;20796;-81
2022/10/21 11:00:37;;;;;;;16.75;12.38;;;;;;;;;;5062219;28;20897;-81
2022/10/21 11:03:06;;;;;;;14.00;11.40;;;;;;;;;;5029527;28;20410;-79
2022/10/21 11:05:35;;;;;;;15.60;11.18;;;;;;;;;;5059851;28;20421;-80
2022/10/21 11:08:06;;;;;;;14.73;10.52;;;;;;;;;;5061550;28;20426;-80
2022/10/21 11:10:34;;;;;;;13.38;10.80;;;;;;;;;;5057306;28;20952;-80
2022/10/21 11:13:01;;;;;;;11.77;10.57;;;;;;;;;;5061930;28;20793;-80
2022/10/21 11:15:32;;;;;;;11.85;10.07;;;;;;;;;;5054905;28;20430;-80
2022/10/21 11:18:01;;;;;;;14.50;10.80;;;;;;;;;;5058516;28;20793;-80
2022/10/21 11:20:32;;;;;;;11.87;9.93;;;;;;;;;;5060161;28;20412;-80
2022/10/21 11:23:03;;;;;;;15.00;10.67;;;;;;;;;;5057601;28;20422;-80
2022/10/21 11:25:33;;;;;;;15.38;10.07;;;;;;;;;;5059416;28;20800;-80
2022/10/21 11:28:08;;;;;;;14.45;10.40;;;;;;;;;;5058584;28;20419;-80
2022/10/21 11:30:40;;;;;;;13.53;10.30;;;;;;;;;;5057145;28;20437;-80
2022/10/21 11:33:11;;;;;;;13.03;10.50;;;;;;;;;;5058585;28;20473;-80
2022/10/21 11:35:42;;;;;;;15.55;10.50;;;;;;;;;;5059167;28;20428;-80
2022/10/21 11:38:17;;;;;;;14.30;9.95;;;;;;;;;;5058207;28;20469;-80
2022/10/21 11:40:48;;;;;;;14.20;9.73;;;;;;;;;;5056866;28;20427;-80
2022/10/21 11:43:22;;;;;;;14.02;10.02;;;;;;;;;;5057842;28;20422;-80
2022/10/21 11:45:57;;;;;;;13.90;8.90;;;;;;;;;;5059120;28;20432;-80
2022/10/21 11:48:27;;;;;;;13.48;8.85;;;;;;;;;;5059616;28;20425;-80
2022/10/21 11:50:58;;;;;;;10.80;8.93;;;;;;;;;;5059303;28;22551;-80
2022/10/21 11:53:33;;;;;;;11.00;9.02;;;;;;;;;;5057767;28;20420;-80
2022/10/21 11:56:04;;;;;;;12.60;9.07;;;;;;;;;;5057311;28;20913;-80
2022/10/21 11:58:36;;;;;;;13.15;8.80;;;;;;;;;;5051344;28;20425;-80
2022/10/21 12:01:10;;;;;;;12.70;9.05;;;;;;;;;;5057809;28;20437;-80
2022/10/21 12:03:44;;;;;;;16.90;9.32;;;;;;;;;;5058706;28;20788;-80
2022/10/21 12:06:15;;;;;;;11.38;9.32;;;;;;;;;;5050194;28;20425;-80
2022/10/21 12:08:46;;;;;;;12.45;8.50;;;;;;;;;;5050535;28;20423;-83
2022/10/21 12:11:17;;;;;;;10.82;8.90;;;;;;;;;;5057763;28;20471;-82
2022/10/21 12:13:45;;;;;;;13.98;9.82;;;;;;;;;;5055432;28;20911;-81
2022/10/21 12:16:12;;;;;;;11.40;9.23;;;;;;;;;;5058195;28;21190;-80
2022/10/21 12:18:42;;;;;;;10.93;9.02;;;;;;;;;;5053731;28;20444;-80
2022/10/21 12:21:10;;;;;;;11.55;8.73;;;;;;;;;;5059058;28;20439;-80
2022/10/21 12:23:37;;;;;;;12.88;9.75;;;;;;;;;;5057507;28;20422;-80
2022/10/21 12:26:10;;;;;;;10.10;8.50;;;;;;;;;;5057978;28;20891;-80
2022/10/21 12:28:40;;;;;;;13.33;8.90;;;;;;;;;;5055790;28;20417;-80
2022/10/21 12:31:16;;;;;;;10.63;8.27;;;;;;;;;;5061528;28;20411;-80
2022/10/21 12:33:43;;;;;;;13.00;8.85;;;;;;;;;;5056017;28;20420;-80
2022/10/21 12:36:36;;;;;;;12.93;8.70;;;;;;;;;;5060187;28;20496;-80
2022/10/21 12:39:04;;;;;;;11.43;8.20;;;;;;;;;;5058585;28;20419;-80
2022/10/21 12:41:33;;;;;;;10.57;7.85;;;;;;;;;;5057989;28;20941;-80
2022/10/21 12:44:14;;;;;;;11.48;8.23;;;;;;;;;;5055880;28;20427;-80
2022/10/21 12:46:43;;;;;;;12.95;8.68;;;;;;;;;;5057581;28;20417;-80
2022/10/21 12:49:20;;;;;;;9.98;8.00;;;;;;;;;;5058532;28;20899;-80
2022/10/21 12:51:48;;;;;;;11.60;8.23;;;;;;;;;;5059383;28;20431;-80
2022/10/21 12:54:15;;;;;;;13.00;8.45;;;;;;;;;;5058591;28;20415;-80
2022/10/21 12:56:44;;;;;;;12.13;9.30;;;;;;;;;;5058010;28;20450;-80
2022/10/21 12:59:25;;;;;;;12.88;8.73;;;;;;;;;;5056433;28;21031;-80
2022/10/21 13:04:49;;;;;;;10.93;8.45;;;;;;;;;;5138830;27;20398;-80
2022/10/21 13:07:32;;;;;;;12.30;8.15;;;;;;;;;;5079640;28;20400;-80
2022/10/21 13:10:17;;;;;;;10.50;8.55;;;;;;;;;;5034716;28;20428;-80
2022/10/21 13:12:46;;;;;;;10.00;8.40;;;;;;;;;;5037248;28;20785;-80
2022/10/21 13:15:31;;;;;;;12.35;9.48;;;;;;;;;;5040702;28;20416;-80
2022/10/21 13:17:58;;;;;;;10.17;8.37;;;;;;;;;;5039480;28;20440;-80
2022/10/21 13:20:57;;;;;;;11.95;8.82;;;;;;;;;;5039410;28;20421;-80
2022/10/21 13:23:37;;;;;;;13.32;8.98;;;;;;;;;;5032763;28;20427;-80
2022/10/21 13:26:05;;;;;;;11.00;8.37;;;;;;;;;;5038206;28;20433;-80
2022/10/21 13:28:31;;;;;;;11.35;9.15;;;;;;;;;;5036570;28;20446;-80
2022/10/21 13:30:59;;;;;;;10.68;8.13;;;;;;;;;;5038176;28;20433;-80
2022/10/21 13:33:28;;;;;;;12.60;9.23;;;;;;;;;;5033170;28;20420;-80
2022/10/21 13:36:00;;;;;;;12.95;9.30;;;;;;;;;;5034527;28;20896;-80
2022/10/21 13:38:28;;;;;;;11.52;7.93;;;;;;;;;;5039831;28;20507;-80
2022/10/21 13:40:55;;;;;;;11.05;8.90;;;;;;;;;;5036916;28;20430;-80
2022/10/21 13:43:27;;;;;;;12.35;9.18;;;;;;;;;;5038208;28;20419;-80
2022/10/21 13:45:59;;;;;;;13.57;9.30;;;;;;;;;;5039023;28;20588;-80
2022/10/21 13:48:26;;;;;;;11.63;8.95;;;;;;;;;;5040259;28;20935;-80
2022/10/21 13:50:52;;;;;;;12.18;9.23;;;;;;;;;;5037625;28;20422;-80
2022/10/21 13:53:35;;;;;;;13.10;9.10;;;;;;;;;;5036093;28;20420;-80
2022/10/21 13:56:02;;;;;;;16.83;9.48;;;;;;;;;;5039990;28;20436;-81
2022/10/21 13:58:30;;;;;;;11.95;9.27;;;;;;;;;;5035736;28;20787;-81
2022/10/21 14:00:56;;;;;;;12.80;9.63;;;;;;;;;;5037285;28;20427;-81
2022/10/21 14:03:24;;;;;;;15.20;9.80;;;;;;;;;;5038310;28;20419;-81
2022/10/21 14:05:52;;;;;;;13.25;9.90;;;;;;;;;;5043671;28;20920;-81
2022/10/21 14:08:21;;;;;;;13.40;10.00;;;;;;;;;;5038163;28;20442;-82
2022/10/21 14:10:49;;;;;;;12.50;9.43;;;;;;;;;;5039193;28;20434;-81
2022/10/21 14:13:16;;;;;;;13.70;9.65;;;;;;;;;;5038264;28;20422;-82
2022/10/21 14:15:44;;;;;;;16.52;10.50;;;;;;;;;;5026122;28;20436;-82
2022/10/21 14:18:15;;;;;;;12.90;10.10;;;;;;;;;;5025442;28;20432;-82
2022/10/21 14:20:42;;;;;;;13.60;10.65;;;;;;;;;;5028069;28;20430;-81
2022/10/21 14:23:17;;;;;;;14.95;9.90;;;;;;;;;;5035761;28;20421;-82
2022/10/21 14:25:44;;;;;;;16.63;10.25;;;;;;;;;;5046600;28;20445;-82
2022/10/21 14:28:12;;;;;;;12.43;10.20;;;;;;;;;;5043333;28;20432;-81
2022/10/21 14:30:39;;;;;;;13.18;10.40;;;;;;;;;;5045231;28;20462;-82
2022/10/21 14:33:07;;;;;;;13.82;9.95;;;;;;;;;;5046587;28;20442;-82